Station Historical Data
Daily Summary for March 15, 2012 Units:  Metric    English   Both
« Previous Day
Next Day »
Daily Weekly Monthly Yearly Custom
  High: Low: Average:
Temperature: 27.3 °C 16 °C 20.1 °C
Dew Point: 19.3 °C 14.3 °C 16.6 °C
Humidity: 95% 50% 82%
Wind Speed: 29km/h 0km/h 6.1km/h
Wind Gust: 30.6km/h - -
Wind- - SSE
Pressure: 1023.6 hPa 1018.2 hPa -
Precipitation: 7.11 mm    
Historical Graphs
 
 
Tabular Data for March 15, 2012
Time Temperature Dew Point Pressure Wind Wind Speed Wind Gust Humidity Rainfall Rate (Hourly) Conditions
00:00 18.8 °C 16.8 °C 1021.2 hPa SSE 4.8 km/h 6.4 km/h 88% 0 mm
00:01 18.8 °C 16.8 °C 1021.2 hPa SSE 3.2 km/h 6.4 km/h 88% 0 mm
00:02 18.7 °C 16.7 °C 1021.2 hPa SSE 4.8 km/h 6.4 km/h 88% 0 mm
00:07 18.4 °C 16.6 °C 1021.2 hPa SSE 3.2 km/h 6.4 km/h 89% 0 mm
00:12 18.4 °C 16.7 °C 1021.2 hPa SSE 4.8 km/h 6.4 km/h 90% 0 mm
00:17 18.3 °C 16.6 °C 1021.2 hPa SSE 3.2 km/h 6.4 km/h 90% 0 mm
00:22 18.2 °C 16.7 °C 1021.2 hPa SE 4.8 km/h 6.4 km/h 91% 0 mm
00:27 18.2 °C 16.7 °C 1021.2 hPa SE 4.8 km/h 6.4 km/h 91% 0 mm
00:32 18.1 °C 16.6 °C 1021.2 hPa SW 1.6 km/h 6.4 km/h 91% 0 mm
00:37 18.1 °C 16.8 °C 1021.2 hPa SSE 3.2 km/h 4.8 km/h 92% 0 mm
00:42 18.1 °C 16.8 °C 1021.2 hPa South 3.2 km/h 6.4 km/h 92% 0 mm
00:47 18.1 °C 16.6 °C 1021.6 hPa SE 1.6 km/h 6.4 km/h 91% 0 mm
00:52 17.9 °C 16.4 °C 1021.6 hPa SSE 3.2 km/h 4.8 km/h 91% 0 mm
00:57 17.8 °C 16.4 °C 1021.6 hPa SSE 4.8 km/h 6.4 km/h 92% 0 mm
01:02 17.7 °C 16.4 °C 1021.6 hPa SSE 3.2 km/h 6.4 km/h 92% 0 mm
01:07 17.7 °C 16.4 °C 1021.6 hPa South 4.8 km/h 6.4 km/h 92% 0 mm
01:12 17.8 °C 16.4 °C 1021.6 hPa SSE 3.2 km/h 6.4 km/h 92% 0 mm
01:17 17.8 °C 16.7 °C 1021.6 hPa SSE 4.8 km/h 8 km/h 93% 0 mm
01:22 17.9 °C 16.8 °C 1021.6 hPa SE 3.2 km/h 4.8 km/h 93% 0 mm
01:28 17.9 °C 16.8 °C 1021.6 hPa SSE 3.2 km/h 6.4 km/h 93% 0 mm
01:33 17.9 °C 16.8 °C 1021.6 hPa SSE 8 km/h 8 km/h 93% 0 mm
01:38 17.9 °C 16.8 °C 1021.6 hPa SE 4.8 km/h 9.7 km/h 93% 0 mm
01:43 18 °C 16.8 °C 1021.6 hPa South 8 km/h 8 km/h 93% 0 mm
01:48 17.9 °C 16.8 °C 1021.6 hPa South 4.8 km/h 6.4 km/h 93% 0 mm
01:53 17.9 °C 16.7 °C 1021.6 hPa South 3.2 km/h 6.4 km/h 93% 0 mm
01:58 18.1 °C 16.9 °C 1021.6 hPa South 4.8 km/h 8 km/h 93% 0 mm
02:03 18.2 °C 17 °C 1021.6 hPa South 4.8 km/h 9.7 km/h 93% 0 mm
02:08 18.3 °C 17.1 °C 1021.6 hPa SSW 4.8 km/h 9.7 km/h 93% 0 mm
02:13 18.3 °C 17.2 °C 1021.6 hPa SSE 6.4 km/h 6.4 km/h 93% 0 mm
02:18 18.4 °C 17.3 °C 1021.6 hPa SSE 6.4 km/h 9.7 km/h 93% 0 mm
02:23 18.5 °C 17.2 °C 1021.6 hPa South 4.8 km/h 11.3 km/h 92% 0 mm
02:28 18.4 °C 17.1 °C 1021.6 hPa SE 3.2 km/h 6.4 km/h 92% 0 mm
02:33 18.3 °C 17 °C 1021.6 hPa South 3.2 km/h 6.4 km/h 92% 0 mm
02:38 18.2 °C 16.9 °C 1021.6 hPa South 3.2 km/h 4.8 km/h 92% 0 mm
02:43 18.2 °C 17.1 °C 1021.6 hPa SSW 6.4 km/h 6.4 km/h 93% 0 mm
02:48 18.2 °C 17.1 °C 1021.6 hPa SW 4.8 km/h 6.4 km/h 93% 0 mm
02:53 18.2 °C 17 °C 1021.6 hPa SSE 3.2 km/h 6.4 km/h 93% 0 mm
02:58 18.2 °C 17 °C 1021.6 hPa SSE 3.2 km/h 6.4 km/h 93% 0 mm
03:03 18.1 °C 16.9 °C 1021.6 hPa SSW 6.4 km/h 6.4 km/h 93% 0 mm
03:08 18.1 °C 16.9 °C 1021.6 hPa South 4.8 km/h 8 km/h 93% 0 mm
03:13 18.1 °C 16.9 °C 1021.6 hPa SSE 6.4 km/h 9.7 km/h 93% 0 mm
03:18 17.8 °C 16.7 °C 1021.6 hPa SSE 4.8 km/h 8 km/h 93% 0 mm
03:23 17.8 °C 16.6 °C 1021.6 hPa SSE 4.8 km/h 8 km/h 93% 0 mm
03:28 17.8 °C 16.7 °C 1021.2 hPa South 6.4 km/h 8 km/h 93% 0 mm
03:33 17.8 °C 16.8 °C 1021.2 hPa SSW 6.4 km/h 9.7 km/h 94% 0 mm
03:38 17.9 °C 16.9 °C 1021.2 hPa South 8 km/h 8 km/h 94% 0 mm
03:43 17.8 °C 16.7 °C 1021.2 hPa SSE 11.3 km/h 11.3 km/h 93% 0 mm
03:48 17.8 °C 16.6 °C 1021.2 hPa SSE 8 km/h 9.7 km/h 93% 0 mm
03:53 17.7 °C 16.6 °C 1021.2 hPa SW 4.8 km/h 4.8 km/h 93% 0 mm
03:58 17.7 °C 16.6 °C 1021.2 hPa SW 3.2 km/h 8 km/h 93% 0 mm
04:03 17.6 °C 16.4 °C 1021.2 hPa SSW 3.2 km/h 4.8 km/h 93% 0 mm
04:08 17.4 °C 16.3 °C 1021.2 hPa SSW 1.6 km/h 4.8 km/h 93% 0 mm
04:13 17.6 °C 16.6 °C 1021.2 hPa SSE 4.8 km/h 6.4 km/h 94% 0 mm
04:18 17.6 °C 16.7 °C 1021.2 hPa SSW 1.6 km/h 4.8 km/h 94% 0 mm
04:23 17.6 °C 16.7 °C 1021.2 hPa SSW 1.6 km/h 4.8 km/h 94% 0 mm
04:28 17.6 °C 16.6 °C 1021.2 hPa South 3.2 km/h 3.2 km/h 94% 0 mm
04:34 17.7 °C 16.7 °C 1021.2 hPa SE 4.8 km/h 6.4 km/h 94% 0 mm
04:39 17.5 °C 16.6 °C 1021.2 hPa SSE 4.8 km/h 8 km/h 94% 0 mm
04:44 17.4 °C 16.4 °C 1021.2 hPa SSE 3.2 km/h 4.8 km/h 94% 0 mm
04:49 17.4 °C 16.5 °C 1021.2 hPa South 4.8 km/h 6.4 km/h 94% 0 mm
04:54 17.5 °C 16.6 °C 1020.9 hPa SSE 3.2 km/h 6.4 km/h 94% 0 mm
04:59 17.4 °C 16.4 °C 1020.9 hPa SSE 4.8 km/h 6.4 km/h 94% 0 mm
05:04 17.3 °C 16.4 °C 1020.9 hPa SSE 4.8 km/h 6.4 km/h 94% 0 mm
05:09 17.3 °C 16.3 °C 1021.2 hPa SSE 4.8 km/h 4.8 km/h 94% 0 mm
05:14 17.3 °C 16.4 °C 1021.2 hPa SSE 1.6 km/h 4.8 km/h 94% 0 mm
05:19 17.2 °C 16.2 °C 1021.2 hPa South 3.2 km/h 4.8 km/h 94% 0 mm
05:24 17.1 °C 16.1 °C 1021.2 hPa SE 3.2 km/h 3.2 km/h 94% 0 mm
05:29 17 °C 16 °C 1021.2 hPa SSE 3.2 km/h 4.8 km/h 94% 0 mm
05:34 17.1 °C 16.1 °C 1021.2 hPa South 1.6 km/h 4.8 km/h 94% 0 mm
05:39 17.2 °C 16.2 °C 1021.2 hPa SE 3.2 km/h 3.2 km/h 94% 0 mm
05:44 17.2 °C 16.2 °C 1021.2 hPa SSE 1.6 km/h 4.8 km/h 94% 0 mm
05:49 17.2 °C 16.2 °C 1021.2 hPa SSE 1.6 km/h 3.2 km/h 94% 0 mm
05:54 17.2 °C 16.2 °C 1021.2 hPa SSE 3.2 km/h 4.8 km/h 94% 0 mm
05:59 17.1 °C 16.1 °C 1021.2 hPa SSE 3.2 km/h 3.2 km/h 94% 0 mm
06:04 17.1 °C 16.1 °C 1021.2 hPa SE 4.8 km/h 4.8 km/h 94% 0 mm
06:09 16.9 °C 16 °C 1021.6 hPa SSE 3.2 km/h 4.8 km/h 94% 0 mm
06:14 17 °C 16.2 °C 1021.6 hPa SSE 3.2 km/h 4.8 km/h 95% 0 mm
06:19 17.1 °C 16.2 °C 1021.6 hPa SSE 3.2 km/h 4.8 km/h 95% 0 mm
06:24 17 °C 16.2 °C 1021.6 hPa SSE 3.2 km/h 4.8 km/h 95% 0 mm
06:29 17 °C 16.2 °C 1021.6 hPa SSE 3.2 km/h 4.8 km/h 95% 0 mm
06:34 17 °C 16.2 °C 1021.6 hPa SE 1.6 km/h 4.8 km/h 95% 0 mm
06:39 17 °C 16.2 °C 1021.9 hPa SSE 3.2 km/h 3.2 km/h 95% 0 mm
06:44 16.8 °C 16 °C 1021.9 hPa SSE 3.2 km/h 3.2 km/h 95% 0 mm
06:49 16.8 °C 16 °C 1021.9 hPa SSW 1.6 km/h 3.2 km/h 95% 0 mm
06:54 16.8 °C 16 °C 1021.9 hPa SE 1.6 km/h 1.6 km/h 95% 0 mm
06:59 16.7 °C 15.9 °C 1021.9 hPa SE 1.6 km/h 1.6 km/h 95% 0 mm
07:04 16.7 °C 15.9 °C 1022.2 hPa SSE 1.6 km/h 1.6 km/h 95% 0 mm
07:09 16.7 °C 15.9 °C 1022.2 hPa SSE 1.6 km/h 1.6 km/h 95% 0 mm
07:14 16.6 °C 15.8 °C 1022.2 hPa Calm   1.6 km/h 95% 0 mm
07:19 16.5 °C 15.7 °C 1022.2 hPa SE 1.6 km/h 1.6 km/h 95% 0 mm
07:25 16.6 °C 15.8 °C 1022.2 hPa SSE 1.6 km/h 1.6 km/h 95% 0 mm
07:30 16.6 °C 15.8 °C 1022.2 hPa SSE 1.6 km/h 1.6 km/h 95% 0 mm
07:35 16.7 °C 15.9 °C 1022.2 hPa SSE 1.6 km/h 3.2 km/h 95% 0 mm
07:40 16.5 °C 15.7 °C 1022.6 hPa Calm   1.6 km/h 95% 0 mm
07:45 16.3 °C 15.5 °C 1022.6 hPa South 1.6 km/h 1.6 km/h 95% 0 mm
07:50 16.3 °C 15.5 °C 1022.6 hPa SSW 1.6 km/h 3.2 km/h 95% 0 mm
07:55 16.3 °C 15.5 °C 1022.6 hPa SSE 1.6 km/h 3.2 km/h 95% 0 mm
08:00 16.3 °C 15.6 °C 1022.6 hPa SSE 3.2 km/h 3.2 km/h 95% 0 mm
08:05 16.4 °C 15.7 °C 1022.6 hPa SSE 3.2 km/h 4.8 km/h 95% 0 mm
08:10 16.4 °C 15.6 °C 1022.9 hPa SSE 1.6 km/h 3.2 km/h 95% 0 mm
08:15 16.3 °C 15.6 °C 1022.9 hPa SSE 3.2 km/h 3.2 km/h 95% 0 mm
08:20 16.3 °C 15.5 °C 1022.9 hPa SE 1.6 km/h 1.6 km/h 95% 0 mm
08:25 16.4 °C 15.6 °C 1022.9 hPa SE 3.2 km/h 3.2 km/h 95% 0 mm
08:30 16.4 °C 15.6 °C 1022.9 hPa SE 3.2 km/h 3.2 km/h 95% 0 mm
08:35 16.3 °C 15.6 °C 1022.9 hPa SSE 3.2 km/h 4.8 km/h 95% 0 mm
08:40 16.4 °C 15.7 °C 1022.9 hPa SSE 3.2 km/h 4.8 km/h 95% 0 mm
08:45 16.6 °C 15.8 °C 1022.9 hPa South 3.2 km/h 3.2 km/h 95% 0 mm
08:46 16.7 °C 15.9 °C 1022.9 hPa SE 1.6 km/h 3.2 km/h 95% 0 mm
08:51 16.8 °C 16 °C 1022.9 hPa SSE 3.2 km/h 3.2 km/h 95% 0 mm
08:56 16.9 °C 16.1 °C 1023.2 hPa SE 1.6 km/h 3.2 km/h 95% 0 mm
09:01 17 °C 16.2 °C 1023.2 hPa SE 1.6 km/h 3.2 km/h 95% 0 mm
09:06 17.2 °C 16.4 °C 1023.2 hPa SSE 4.8 km/h 4.8 km/h 95% 0 mm
09:11 17.3 °C 16.5 °C 1023.2 hPa South 3.2 km/h 4.8 km/h 95% 0 mm
09:16 17.6 °C 16.8 °C 1023.2 hPa SSE 3.2 km/h 3.2 km/h 95% 0 mm
09:21 17.8 °C 17 °C 1023.2 hPa SSE 3.2 km/h 4.8 km/h 95% 0 mm
09:26 18.1 °C 17.3 °C 1023.2 hPa SSE 3.2 km/h 4.8 km/h 95% 0 mm
09:31 18.4 °C 17.6 °C 1023.2 hPa SE 1.6 km/h 4.8 km/h 95% 0 mm
09:36 18.6 °C 17.6 °C 1023.2 hPa SE 3.2 km/h 6.4 km/h 94% 0 mm
09:41 18.7 °C 17.7 °C 1023.2 hPa SE 3.2 km/h 4.8 km/h 94% 0 mm
09:46 18.6 °C 17.6 °C 1023.2 hPa SE 3.2 km/h 4.8 km/h 94% 0 mm
09:51 18.8 °C 17.8 °C 1023.2 hPa SE 6.4 km/h 6.4 km/h 94% 0 mm
09:56 19.1 °C 18.1 °C 1023.2 hPa SSE 3.2 km/h 6.4 km/h 94% 0 mm
10:01 19.4 °C 18.2 °C 1023.2 hPa ESE 6.4 km/h 8 km/h 93% 0 mm
10:06 19.8 °C 18.6 °C 1023.2 hPa SSE 4.8 km/h 9.7 km/h 93% 0 mm
10:11 20.1 °C 18.7 °C 1023.6 hPa SSE 4.8 km/h 8 km/h 92% 0 mm
10:16 20.4 °C 18.9 °C 1023.2 hPa SE 3.2 km/h 8 km/h 91% 0 mm
10:21 20.4 °C 18.8 °C 1023.2 hPa SE 3.2 km/h 8 km/h 90% 0 mm
10:26 20.2 °C 18.6 °C 1023.6 hPa SE 3.2 km/h 8 km/h 90% 0 mm
10:31 20.3 °C 18.6 °C 1023.6 hPa South 3.2 km/h 6.4 km/h 90% 0 mm
10:36 20.6 °C 18.7 °C 1023.6 hPa South 3.2 km/h 8 km/h 89% 0 mm
10:42 20.9 °C 19 °C 1023.6 hPa SSW 8 km/h 8 km/h 89% 0 mm
10:47 21.2 °C 18.6 °C 1023.6 hPa South 9.7 km/h 11.3 km/h 85% 0 mm
10:52 21.4 °C 18.6 °C 1023.6 hPa SSW 8 km/h 16.1 km/h 84% 0 mm
10:57 21.6 °C 18.8 °C 1023.6 hPa South 6.4 km/h 14.5 km/h 84% 0 mm
11:02 21.9 °C 18.9 °C 1023.2 hPa SW 8 km/h 9.7 km/h 83% 0 mm
11:07 22.1 °C 18.7 °C 1023.6 hPa SSW 11.3 km/h 14.5 km/h 81% 0 mm
11:12 22.2 °C 18.6 °C 1023.6 hPa SW 14.5 km/h 16.1 km/h 80% 0 mm
11:17 22.4 °C 18.6 °C 1023.2 hPa SW 16.1 km/h 16.1 km/h 79% 0 mm
11:22 22.6 °C 19 °C 1023.2 hPa SW 11.3 km/h 12.9 km/h 80% 0 mm
11:27 22.7 °C 18.7 °C 1023.2 hPa South 14.5 km/h 16.1 km/h 78% 0 mm
11:32 23 °C 18.9 °C 1023.2 hPa SSW 6.4 km/h 12.9 km/h 78% 0 mm
11:37 23.1 °C 18.7 °C 1023.2 hPa WSW 9.7 km/h 20.9 km/h 76% 0 mm
11:42 23.1 °C 18.4 °C 1023.2 hPa SW 11.3 km/h 14.5 km/h 75% 0 mm
11:47 23.4 °C 19.2 °C 1023.2 hPa SW 8 km/h 14.5 km/h 77% 0 mm
11:52 23.8 °C 19.1 °C 1022.9 hPa SW 9.7 km/h 12.9 km/h 75% 0 mm
11:57 23.8 °C 18.7 °C 1022.9 hPa SSE 6.4 km/h 14.5 km/h 73% 0 mm
12:02 23.9 °C 18.8 °C 1022.9 hPa SSE 8 km/h 12.9 km/h 73% 0 mm
12:07 24.1 °C 18.8 °C 1022.9 hPa SSE 3.2 km/h 14.5 km/h 72% 0 mm
12:12 24.3 °C 18.4 °C 1022.9 hPa SSW 4.8 km/h 12.9 km/h 70% 0 mm
12:17 24.3 °C 18.4 °C 1022.9 hPa SW 8 km/h 14.5 km/h 70% 0 mm
12:22 24.6 °C 19 °C 1022.9 hPa SW 4.8 km/h 14.5 km/h 71% 0 mm
12:27 24.8 °C 18.7 °C 1022.6 hPa SSE 4.8 km/h 12.9 km/h 69% 0 mm
12:32 25 °C 18.4 °C 1022.6 hPa South 9.7 km/h 16.1 km/h 67% 0 mm
12:37 25.1 °C 18.3 °C 1022.6 hPa SSW 11.3 km/h 19.3 km/h 66% 0 mm
12:42 25.2 °C 18.1 °C 1022.6 hPa South 12.9 km/h 17.7 km/h 65% 0 mm
12:47 25.4 °C 18.3 °C 1022.6 hPa SSW 9.7 km/h 14.5 km/h 65% 0 mm
12:52 25.4 °C 18.6 °C 1022.6 hPa South 12.9 km/h 16.1 km/h 66% 0 mm
12:57 25.4 °C 18.4 °C 1022.2 hPa South 11.3 km/h 17.7 km/h 65% 0 mm
13:02 25.4 °C 18.2 °C 1022.2 hPa South 8 km/h 16.1 km/h 64% 0 mm
13:07 25.6 °C 19.2 °C 1022.2 hPa SW 11.3 km/h 14.5 km/h 68% 0 mm
13:13 25.6 °C 19.3 °C 1022.2 hPa SSE 14.5 km/h 14.5 km/h 68% 0 mm
13:18 26 °C 19.2 °C 1022.2 hPa South 8 km/h 16.1 km/h 66% 0 mm
13:23 25.8 °C 18.5 °C 1021.9 hPa SSE 6.4 km/h 20.9 km/h 64% 0 mm
13:28 25.9 °C 18.6 °C 1021.9 hPa SSW 9.7 km/h 14.5 km/h 64% 0 mm
13:33 26.1 °C 18 °C 1021.9 hPa SSE 12.9 km/h 14.5 km/h 61% 0 mm
13:38 26.2 °C 18.6 °C 1021.9 hPa SSW 8 km/h 12.9 km/h 63% 0 mm
13:43 26.1 °C 17.9 °C 1021.6 hPa South 12.9 km/h 22.5 km/h 61% 0 mm
13:48 25.7 °C 17.6 °C 1021.6 hPa SW 11.3 km/h 16.1 km/h 61% 0 mm
13:53 25.6 °C 17.8 °C 1021.6 hPa South 9.7 km/h 16.1 km/h 62% 0 mm
13:58 26 °C 18.2 °C 1021.6 hPa SW 8 km/h 16.1 km/h 62% 0 mm
14:03 26 °C 17.4 °C 1021.6 hPa South 8 km/h 12.9 km/h 59% 0 mm
14:08 25.9 °C 17.6 °C 1021.2 hPa WSW 6.4 km/h 11.3 km/h 60% 0 mm
14:13 25.9 °C 18.1 °C 1021.2 hPa SW 11.3 km/h 12.9 km/h 62% 0 mm
14:18 25.9 °C 17.8 °C 1021.2 hPa SW 9.7 km/h 16.1 km/h 61% 0 mm
14:23 25.8 °C 17.5 °C 1020.9 hPa SSW 4.8 km/h 16.1 km/h 60% 0 mm
14:28 25.8 °C 17.5 °C 1020.9 hPa SW 12.9 km/h 14.5 km/h 60% 0 mm
14:33 26.2 °C 17.6 °C 1020.5 hPa SSW 9.7 km/h 14.5 km/h 59% 0 mm
14:38 26.5 °C 16.2 °C 1020.5 hPa SSW 12.9 km/h 20.9 km/h 53% 0 mm
14:43 26.3 °C 16.8 °C 1020.5 hPa SSW 6.4 km/h 14.5 km/h 56% 0 mm
14:48 26.5 °C 17 °C 1020.5 hPa SSW 12.9 km/h 12.9 km/h 56% 0 mm
14:53 26.2 °C 16.7 °C 1020.5 hPa SSE 4.8 km/h 12.9 km/h 56% 0 mm
14:58 26.3 °C 17.1 °C 1020.5 hPa SSW 3.2 km/h 9.7 km/h 57% 0 mm
15:03 26.9 °C 17.4 °C 1020.2 hPa SW 6.4 km/h 16.1 km/h 56% 0 mm
15:08 26.8 °C 17.3 °C 1020.2 hPa SW 3.2 km/h 14.5 km/h 56% 0 mm
15:13 26.8 °C 17.8 °C 1020.2 hPa South 9.7 km/h 12.9 km/h 58% 0 mm
15:18 27.1 °C 17.9 °C 1019.9 hPa SE 12.9 km/h 14.5 km/h 57% 0 mm
15:23 27.3 °C 17.2 °C 1019.9 hPa SW 9.7 km/h 16.1 km/h 54% 0 mm
15:28 26.8 °C 16.7 °C 1019.9 hPa WSW 12.9 km/h 14.5 km/h 54% 0 mm
15:33 26.4 °C 16.6 °C 1019.5 hPa SSE 8 km/h 11.3 km/h 55% 0 mm
15:38 26.6 °C 17.4 °C 1019.5 hPa SW 9.7 km/h 14.5 km/h 57% 0 mm
15:43 27.1 °C 16.7 °C 1019.5 hPa South 8 km/h 20.9 km/h 53% 0 mm
15:48 27.3 °C 16.6 °C 1019.5 hPa SSW 8 km/h 19.3 km/h 52% 0 mm
15:53 27.1 °C 16.1 °C 1019.5 hPa SSW 8 km/h 19.3 km/h 51% 0 mm
15:58 26.5 °C 16.2 °C 1019.2 hPa South 6.4 km/h 12.9 km/h 53% 0 mm
16:04 26.6 °C 17.1 °C 1019.2 hPa SSW 12.9 km/h 12.9 km/h 56% 0 mm
16:09 26.9 °C 17.2 °C 1019.2 hPa SSE 16.1 km/h 16.1 km/h 55% 0 mm
16:14 26.7 °C 16.9 °C 1019.2 hPa SSE 12.9 km/h 16.1 km/h 55% 0 mm
16:19 26.2 °C 16.8 °C 1019.2 hPa SSE 6.4 km/h 11.3 km/h 56% 0 mm
16:24 26.1 °C 16.1 °C 1019.2 hPa South 6.4 km/h 9.7 km/h 54% 0 mm
16:29 26.8 °C 17.3 °C 1019.2 hPa South 8 km/h 12.9 km/h 56% 0 mm
16:34 27.3 °C 16.6 °C 1018.8 hPa SW 17.7 km/h 17.7 km/h 52% 0 mm
16:39 26.8 °C 15.8 °C 1019.2 hPa SSW 4.8 km/h 19.3 km/h 51% 0 mm
16:44 26.4 °C 16.4 °C 1018.8 hPa SSW 4.8 km/h 17.7 km/h 54% 0 mm
16:49 26.2 °C 15.9 °C 1018.8 hPa South 8 km/h 11.3 km/h 53% 0 mm
16:54 26.2 °C 15.6 °C 1018.5 hPa South 11.3 km/h 12.9 km/h 52% 0 mm
16:59 26.2 °C 16.2 °C 1018.8 hPa SE 6.4 km/h 9.7 km/h 54% 0 mm
17:04 26.1 °C 16.4 °C 1018.8 hPa SSE 6.4 km/h 11.3 km/h 55% 0 mm
17:09 26.2 °C 16.7 °C 1018.8 hPa SW 8 km/h 9.7 km/h 56% 0 mm
17:14 26.3 °C 16 °C 1018.5 hPa South 9.7 km/h 14.5 km/h 53% 0 mm
17:19 26.3 °C 15.7 °C 1018.5 hPa SW 9.7 km/h 19.3 km/h 52% 0 mm
17:24 26.2 °C 15.8 °C 1018.5 hPa WSW 14.5 km/h 20.9 km/h 53% 0 mm
17:29 26.1 °C 16.1 °C 1018.5 hPa SW 11.3 km/h 16.1 km/h 54% 0 mm
17:34 26 °C 16.3 °C 1018.5 hPa SW 12.9 km/h 14.5 km/h 55% 0 mm
17:39 25.9 °C 16.2 °C 1018.2 hPa SW 11.3 km/h 17.7 km/h 55% 0 mm
17:44 25.8 °C 16.1 °C 1018.5 hPa SW 6.4 km/h 11.3 km/h 55% 0 mm
17:49 25.7 °C 15.1 °C 1018.5 hPa WSW 11.3 km/h 16.1 km/h 52% 0 mm
17:54 25.6 °C 14.4 °C 1018.5 hPa WSW 16.1 km/h 19.3 km/h 50% 0 mm
17:59 25.4 °C 14.3 °C 1018.5 hPa West 9.7 km/h 16.1 km/h 50% 0 mm
18:04 25.1 °C 14.8 °C 1018.8 hPa SW 12.9 km/h 19.3 km/h 53% 0 mm
18:09 24.5 °C 15.7 °C 1018.8 hPa SW 9.7 km/h 14.5 km/h 58% 0 mm
18:14 24 °C 15.5 °C 1018.5 hPa West 9.7 km/h 16.1 km/h 59% 0 mm
18:19 22.8 °C 15.4 °C 1018.5 hPa West 16.1 km/h 25.7 km/h 63% 24.89 mm
18:24 21 °C 14.7 °C 1018.5 hPa NW 6.4 km/h 14.5 km/h 67% 3.56 mm
18:29 20.7 °C 15 °C 1019.9 hPa SSW 29 km/h 30.6 km/h 70% 63.25 mm
18:34 19.8 °C 15 °C 1019.9 hPa ESE 12.9 km/h 17.7 km/h 74% 28.96 mm
18:39 19.2 °C 15.1 °C 1019.5 hPa NE 9.7 km/h 14.5 km/h 77% 5.59 mm
18:44 19 °C 15.5 °C 1019.5 hPa NW 8 km/h 8 km/h 80% 2.03 mm
18:49 18.6 °C 15.8 °C 1019.9 hPa WNW 1.6 km/h 1.6 km/h 84% 1.27 mm
18:54 18.4 °C 15.9 °C 1019.9 hPa SE 9.7 km/h 11.3 km/h 85% 0 mm
18:59 18.3 °C 15.8 °C 1019.9 hPa SE 4.8 km/h 6.4 km/h 85% 0 mm
19:04 18.3 °C 15.9 °C 1019.5 hPa East 1.6 km/h 4.8 km/h 86% 0 mm
19:09 18.2 °C 16 °C 1019.2 hPa North 3.2 km/h 3.2 km/h 87% 0 mm
19:14 18.1 °C 16.1 °C 1019.2 hPa NNW 3.2 km/h 4.8 km/h 88% 0 mm
19:19 17.8 °C 16 °C 1019.2 hPa NE 4.8 km/h 4.8 km/h 89% 0 mm
19:24 17.8 °C 16.1 °C 1019.5 hPa East 1.6 km/h 3.2 km/h 90% 0 mm
19:29 17.8 °C 16.1 °C 1019.2 hPa Calm   1.6 km/h 90% 0 mm
19:35 17.8 °C 15.9 °C 1019.2 hPa SSE 3.2 km/h 3.2 km/h 89% 0 mm
19:40 17.6 °C 15.9 °C 1019.2 hPa SSE 4.8 km/h 6.4 km/h 90% 0 mm
19:43 17.5 °C 15.8 °C 1019.2 hPa East 3.2 km/h 6.4 km/h 90% 0 mm
19:48 17.5 °C 15.8 °C 1019.2 hPa East 6.4 km/h 6.4 km/h 90% 0 mm
19:53 17.4 °C 15.8 °C 1019.2 hPa ESE 8 km/h 11.3 km/h 90% 0 mm
19:58 17.6 °C 15.9 °C 1019.2 hPa East 11.3 km/h 11.3 km/h 90% 0 mm
20:03 17.9 °C 15.9 °C 1018.8 hPa SE 3.2 km/h 6.4 km/h 88% 0 mm
20:08 17.9 °C 15.7 °C 1018.5 hPa ESE 11.3 km/h 11.3 km/h 87% 0 mm
20:13 17.7 °C 15.7 °C 1018.5 hPa ESE 11.3 km/h 17.7 km/h 88% 0 mm
20:19 17.7 °C 15.7 °C 1018.5 hPa SE 12.9 km/h 17.7 km/h 88% 0 mm
20:24 17.5 °C 15.5 °C 1018.5 hPa SE 14.5 km/h 16.1 km/h 88% 0 mm
20:29 17.4 °C 15.4 °C 1018.5 hPa ESE 12.9 km/h 22.5 km/h 88% 0 mm
20:34 17.3 °C 15.5 °C 1018.8 hPa ESE 6.4 km/h 14.5 km/h 89% 0 mm
20:39 17.3 °C 15.6 °C 1020.5 hPa NW 14.5 km/h 22.5 km/h 90% 0 mm
20:44 17.6 °C 15.7 °C 1020.5 hPa NW 8 km/h 11.3 km/h 89% 0 mm
20:49 18.1 °C 16.1 °C 1020.5 hPa North 4.8 km/h 9.7 km/h 88% 0 mm
20:54 18.4 °C 16 °C 1020.5 hPa ENE 3.2 km/h 8 km/h 86% 0 mm
20:59 18.6 °C 16 °C 1020.9 hPa East 3.2 km/h 6.4 km/h 85% 0 mm
21:04 18.4 °C 15.9 °C 1020.9 hPa East 8 km/h 8 km/h 85% 0 mm
21:09 18.5 °C 15.7 °C 1020.9 hPa East 3.2 km/h 8 km/h 84% 0 mm
21:14 18.6 °C 15.8 °C 1021.2 hPa ENE 4.8 km/h 11.3 km/h 84% 0 mm
21:19 18.3 °C 15.8 °C 1021.2 hPa East 8 km/h 11.3 km/h 85% 0 mm
21:24 18.1 °C 15.7 °C 1021.6 hPa East 11.3 km/h 14.5 km/h 86% 0 mm
21:29 17.8 °C 15.7 °C 1021.6 hPa East 14.5 km/h 17.7 km/h 87% 0 mm
21:34 17.7 °C 15.7 °C 1021.2 hPa East 11.3 km/h 17.7 km/h 88% 0 mm
21:39 17.6 °C 15.7 °C 1021.2 hPa East 12.9 km/h 16.1 km/h 89% 0 mm
21:44 17.6 °C 15.6 °C 1021.2 hPa East 14.5 km/h 16.1 km/h 88% 0 mm
21:49 17.6 °C 15.6 °C 1021.2 hPa ENE 8 km/h 9.7 km/h 88% 0 mm
21:54 17.5 °C 15.5 °C 1020.9 hPa East 6.4 km/h 11.3 km/h 88% 0 mm
21:59 17.4 °C 15.4 °C 1020.9 hPa East 4.8 km/h 9.7 km/h 88% 0 mm
22:04 17.4 °C 15.4 °C 1020.9 hPa East 4.8 km/h 6.4 km/h 88% 0 mm
22:09 17.3 °C 15.3 °C 1020.9 hPa ESE 3.2 km/h 4.8 km/h 88% 0 mm
22:14 17.1 °C 15.1 °C 1020.9 hPa ESE 3.2 km/h 4.8 km/h 88% 0 mm
22:20 17 °C 15.2 °C 1020.9 hPa ESE 3.2 km/h 4.8 km/h 89% 0 mm
22:25 16.9 °C 15.1 °C 1020.9 hPa ESE 3.2 km/h 6.4 km/h 89% 0 mm
22:30 16.8 °C 15 °C 1020.9 hPa ESE 6.4 km/h 6.4 km/h 89% 0 mm
22:35 16.8 °C 15 °C 1020.9 hPa ESE 4.8 km/h 6.4 km/h 89% 0 mm
22:40 16.8 °C 15 °C 1020.9 hPa SE 3.2 km/h 6.4 km/h 89% 0 mm
22:45 16.7 °C 14.8 °C 1020.9 hPa ESE 6.4 km/h 6.4 km/h 89% 0 mm
22:50 16.5 °C 14.8 °C 1020.9 hPa ESE 3.2 km/h 4.8 km/h 90% 0 mm
22:55 16.4 °C 14.7 °C 1020.9 hPa Calm   3.2 km/h 90% 0 mm
23:00 16.3 °C 14.7 °C 1020.5 hPa ENE 1.6 km/h 1.6 km/h 90% 0 mm
23:05 16.3 °C 14.7 °C 1020.5 hPa ENE 1.6 km/h 1.6 km/h 90% 0 mm
23:10 16.3 °C 14.7 °C 1020.5 hPa East 3.2 km/h 4.8 km/h 90% 0 mm
23:15 16.4 °C 14.7 °C 1020.5 hPa East 3.2 km/h 3.2 km/h 90% 0 mm
23:20 16.4 °C 14.8 °C 1020.5 hPa ENE 6.4 km/h 8 km/h 90% 0 mm
23:25 16.6 °C 14.9 °C 1020.5 hPa East 3.2 km/h 9.7 km/h 90% 0 mm
23:30 16.6 °C 14.9 °C 1020.9 hPa East 4.8 km/h 8 km/h 90% 0 mm
23:35 16.4 °C 14.7 °C 1020.5 hPa East 8 km/h 8 km/h 90% 0 mm
23:36 16.4 °C 14.7 °C 1020.5 hPa East 6.4 km/h 8 km/h 90% 0 mm
23:41 16.3 °C 14.8 °C 1020.5 hPa East 4.8 km/h 8 km/h 91% 0 mm
23:46 16.2 °C 14.7 °C 1020.9 hPa East 3.2 km/h 6.4 km/h 91% 0 mm
23:51 16 °C 14.6 °C 1020.9 hPa East 6.4 km/h 8 km/h 91% 0 mm
23:56 16.1 °C 14.8 °C 1020.9 hPa SE 3.2 km/h 8 km/h 92% 0 mm
Compliments of Weather Underground